Comins, Michigan
Current Conditions -  °F | °C
As of 9:54 PM on Friday 21 Nov 2014 (Local Time) from KAPN Reporting Station
Overcast Overcast  
Wind Chill: -10°   Ceiling: 10000
Heat Index: -4°   Visibility: 10mi
Dew Point: -9°   Wind: 13mph
Humidity: 66%   Direction: 200°SSW
Pressure: 30.17"   Gusts: NA
Location:  44.8°N, 84.04°W
Report Text: KAPN 220254Z AUTO 20011KT 10SM OVC100 M04/M09 A3017 RMK AO2 SLP229 T10391094 58030
Loading
Personal Weather Stations






























Interactive Weather Map New forecast layout! Learn more

10-Day Weather Forecast

Advertisements
Track Severe Weather on mobile